sensor_id;sensor_type;location;lat;lon;timestamp;P1;durP1;ratioP1;P2;durP2;ratioP2
38879;SDS011;25887;30.194;-97.880;2023-06-19T00:01:23;4.15;;;3.13;;
38879;SDS011;25887;30.194;-97.880;2023-06-19T00:03:49;8.57;;;3.60;;
38879;SDS011;25887;30.194;-97.880;2023-06-19T00:06:15;7.13;;;3.80;;
38879;SDS011;25887;30.194;-97.880;2023-06-19T00:08:42;9.23;;;3.50;;
38879;SDS011;25887;30.194;-97.880;2023-06-19T00:11:08;9.00;;;3.78;;
38879;SDS011;25887;30.194;-97.880;2023-06-19T00:13:34;8.27;;;3.88;;
38879;SDS011;25887;30.194;-97.880;2023-06-19T00:16:00;5.50;;;3.65;;
38879;SDS011;25887;30.194;-97.880;2023-06-19T00:18:27;8.55;;;4.38;;
38879;SDS011;25887;30.194;-97.880;2023-06-19T00:20:53;8.13;;;3.05;;
38879;SDS011;25887;30.194;-97.880;2023-06-19T00:23:24;8.93;;;3.20;;
38879;SDS011;25887;30.194;-97.880;2023-06-19T00:25:50;5.93;;;3.70;;
38879;SDS011;25887;30.194;-97.880;2023-06-19T00:28:16;8.25;;;3.75;;
38879;SDS011;25887;30.194;-97.880;2023-06-19T00:30:45;7.05;;;3.33;;
38879;SDS011;25887;30.194;-97.880;2023-06-19T00:33:11;4.45;;;3.30;;
38879;SDS011;25887;30.194;-97.880;2023-06-19T00:35:37;6.38;;;3.15;;
38879;SDS011;25887;30.194;-97.880;2023-06-19T00:38:04;6.43;;;3.72;;
38879;SDS011;25887;30.194;-97.880;2023-06-19T00:40:34;11.00;;;3.40;;
38879;SDS011;25887;30.194;-97.880;2023-06-19T00:43:00;5.93;;;2.97;;
38879;SDS011;25887;30.194;-97.880;2023-06-19T00:45:27;13.43;;;3.10;;
38879;SDS011;25887;30.194;-97.880;2023-06-19T00:47:53;6.70;;;2.92;;
38879;SDS011;25887;30.194;-97.880;2023-06-19T00:50:21;7.75;;;3.17;;
38879;SDS011;25887;30.194;-97.880;2023-06-19T00:52:48;9.90;;;2.95;;
38879;SDS011;25887;30.194;-97.880;2023-06-19T00:55:15;5.22;;;3.22;;
38879;SDS011;25887;30.194;-97.880;2023-06-19T00:57:42;5.38;;;3.50;;
38879;SDS011;25887;30.194;-97.880;2023-06-19T01:00:09;4.03;;;3.13;;
38879;SDS011;25887;30.194;-97.880;2023-06-19T01:02:38;7.00;;;3.00;;
38879;SDS011;25887;30.194;-97.880;2023-06-19T01:05:05;9.27;;;2.90;;
38879;SDS011;25887;30.194;-97.880;2023-06-19T01:07:42;6.25;;;2.88;;
38879;SDS011;25887;30.194;-97.880;2023-06-19T01:10:20;5.65;;;2.95;;
38879;SDS011;25887;30.194;-97.880;2023-06-19T01:12:56;5.35;;;2.78;;
38879;SDS011;25887;30.194;-97.880;2023-06-19T01:15:27;7.75;;;2.88;;
38879;SDS011;25887;30.194;-97.880;2023-06-19T01:17:54;4.65;;;2.95;;
38879;SDS011;25887;30.194;-97.880;2023-06-19T01:20:23;11.73;;;3.65;;
38879;SDS011;25887;30.194;-97.880;2023-06-19T01:22:50;7.72;;;3.33;;
38879;SDS011;25887;30.194;-97.880;2023-06-19T01:25:22;4.15;;;2.72;;
38879;SDS011;25887;30.194;-97.880;2023-06-19T01:27:49;9.55;;;3.17;;
38879;SDS011;25887;30.194;-97.880;2023-06-19T01:30:16;4.85;;;2.97;;
38879;SDS011;25887;30.194;-97.880;2023-06-19T01:32:51;13.48;;;3.00;;
38879;SDS011;25887;30.194;-97.880;2023-06-19T01:35:27;4.43;;;2.65;;
38879;SDS011;25887;30.194;-97.880;2023-06-19T01:37:54;8.00;;;3.08;;
38879;SDS011;25887;30.194;-97.880;2023-06-19T01:40:21;7.30;;;3.22;;
38879;SDS011;25887;30.194;-97.880;2023-06-19T01:42:53;5.60;;;2.90;;
38879;SDS011;25887;30.194;-97.880;2023-06-19T01:45:20;9.13;;;3.10;;
38879;SDS011;25887;30.194;-97.880;2023-06-19T01:47:46;4.70;;;2.90;;
38879;SDS011;25887;30.194;-97.880;2023-06-19T01:50:13;6.68;;;3.08;;
38879;SDS011;25887;30.194;-97.880;2023-06-19T01:52:40;6.90;;;2.60;;
38879;SDS011;25887;30.194;-97.880;2023-06-19T01:55:07;5.90;;;2.78;;
38879;SDS011;25887;30.194;-97.880;2023-06-19T01:57:34;6.10;;;2.60;;
38879;SDS011;25887;30.194;-97.880;2023-06-19T02:00:02;4.22;;;2.90;;
38879;SDS011;25887;30.194;-97.880;2023-06-19T02:02:31;5.68;;;2.92;;
38879;SDS011;25887;30.194;-97.880;2023-06-19T02:04:58;6.20;;;2.50;;
38879;SDS011;25887;30.194;-97.880;2023-06-19T02:07:24;10.50;;;2.47;;
38879;SDS011;25887;30.194;-97.880;2023-06-19T02:09:51;11.18;;;2.50;;
38879;SDS011;25887;30.194;-97.880;2023-06-19T02:12:17;8.75;;;2.95;;
38879;SDS011;25887;30.194;-97.880;2023-06-19T02:14:43;8.00;;;2.80;;
38879;SDS011;25887;30.194;-97.880;2023-06-19T02:17:10;5.25;;;2.22;;
38879;SDS011;25887;30.194;-97.880;2023-06-19T02:19:36;4.82;;;2.28;;
38879;SDS011;25887;30.194;-97.880;2023-06-19T02:22:02;12.98;;;2.88;;
38879;SDS011;25887;30.194;-97.880;2023-06-19T02:24:28;5.45;;;2.70;;
38879;SDS011;25887;30.194;-97.880;2023-06-19T02:26:54;3.53;;;2.60;;
38879;SDS011;25887;30.194;-97.880;2023-06-19T02:29:21;7.05;;;2.88;;
38879;SDS011;25887;30.194;-97.880;2023-06-19T02:31:47;8.98;;;2.70;;
38879;SDS011;25887;30.194;-97.880;2023-06-19T02:34:13;7.88;;;3.22;;
38879;SDS011;25887;30.194;-97.880;2023-06-19T02:36:39;9.50;;;3.03;;
38879;SDS011;25887;30.194;-97.880;2023-06-19T02:39:05;6.78;;;2.80;;
38879;SDS011;25887;30.194;-97.880;2023-06-19T02:41:32;9.25;;;3.17;;
38879;SDS011;25887;30.194;-97.880;2023-06-19T02:43:58;8.40;;;3.30;;
38879;SDS011;25887;30.194;-97.880;2023-06-19T02:46:25;11.18;;;4.45;;
38879;SDS011;25887;30.194;-97.880;2023-06-19T02:48:51;10.45;;;3.33;;
38879;SDS011;25887;30.194;-97.880;2023-06-19T02:51:17;9.23;;;3.60;;
38879;SDS011;25887;30.194;-97.880;2023-06-19T02:53:44;10.75;;;3.83;;
38879;SDS011;25887;30.194;-97.880;2023-06-19T02:56:13;12.73;;;4.35;;
38879;SDS011;25887;30.194;-97.880;2023-06-19T02:58:39;13.02;;;3.88;;
38879;SDS011;25887;30.194;-97.880;2023-06-19T03:01:06;10.40;;;3.78;;
38879;SDS011;25887;30.194;-97.880;2023-06-19T03:03:34;11.45;;;3.92;;
38879;SDS011;25887;30.194;-97.880;2023-06-19T03:06:06;11.30;;;4.28;;
38879;SDS011;25887;30.194;-97.880;2023-06-19T03:08:33;10.60;;;4.22;;
38879;SDS011;25887;30.194;-97.880;2023-06-19T03:11:00;9.63;;;4.28;;
38879;SDS011;25887;30.194;-97.880;2023-06-19T03:13:31;13.57;;;4.40;;
38879;SDS011;25887;30.194;-97.880;2023-06-19T03:16:13;10.90;;;3.83;;
38879;SDS011;25887;30.194;-97.880;2023-06-19T03:18:40;6.88;;;3.80;;
38879;SDS011;25887;30.194;-97.880;2023-06-19T03:21:07;9.05;;;4.45;;
38879;SDS011;25887;30.194;-97.880;2023-06-19T03:23:33;11.27;;;4.43;;
38879;SDS011;25887;30.194;-97.880;2023-06-19T03:25:59;11.23;;;4.35;;
38879;SDS011;25887;30.194;-97.880;2023-06-19T03:28:25;9.30;;;4.28;;
38879;SDS011;25887;30.194;-97.880;2023-06-19T03:30:51;10.40;;;4.25;;
38879;SDS011;25887;30.194;-97.880;2023-06-19T03:33:18;12.75;;;4.60;;
38879;SDS011;25887;30.194;-97.880;2023-06-19T03:35:44;13.77;;;4.85;;
38879;SDS011;25887;30.194;-97.880;2023-06-19T03:38:10;6.65;;;3.60;;
38879;SDS011;25887;30.194;-97.880;2023-06-19T03:40:36;6.35;;;4.03;;
38879;SDS011;25887;30.194;-97.880;2023-06-19T03:43:02;13.00;;;4.50;;
38879;SDS011;25887;30.194;-97.880;2023-06-19T03:45:28;10.65;;;4.03;;
38879;SDS011;25887;30.194;-97.880;2023-06-19T03:47:54;9.63;;;4.00;;
38879;SDS011;25887;30.194;-97.880;2023-06-19T03:50:20;9.23;;;3.92;;
38879;SDS011;25887;30.194;-97.880;2023-06-19T03:52:47;6.90;;;4.15;;
38879;SDS011;25887;30.194;-97.880;2023-06-19T03:55:13;8.05;;;4.55;;
38879;SDS011;25887;30.194;-97.880;2023-06-19T03:57:39;11.77;;;4.40;;
38879;SDS011;25887;30.194;-97.880;2023-06-19T04:00:06;10.20;;;4.35;;
38879;SDS011;25887;30.194;-97.880;2023-06-19T04:02:33;14.48;;;4.53;;
38879;SDS011;25887;30.194;-97.880;2023-06-19T04:05:01;8.27;;;4.07;;
38879;SDS011;25887;30.194;-97.880;2023-06-19T04:07:28;8.05;;;3.95;;
38879;SDS011;25887;30.194;-97.880;2023-06-19T04:09:55;13.10;;;3.97;;
38879;SDS011;25887;30.194;-97.880;2023-06-19T04:12:21;12.85;;;4.30;;
38879;SDS011;25887;30.194;-97.880;2023-06-19T04:14:47;13.85;;;4.35;;
38879;SDS011;25887;30.194;-97.880;2023-06-19T04:17:13;10.40;;;3.70;;
38879;SDS011;25887;30.194;-97.880;2023-06-19T04:19:41;10.82;;;3.80;;
38879;SDS011;25887;30.194;-97.880;2023-06-19T04:22:07;11.57;;;3.13;;
38879;SDS011;25887;30.194;-97.880;2023-06-19T04:24:33;8.13;;;2.97;;
38879;SDS011;25887;30.194;-97.880;2023-06-19T04:27:00;10.60;;;3.63;;
38879;SDS011;25887;30.194;-97.880;2023-06-19T04:29:27;12.25;;;4.10;;
38879;SDS011;25887;30.194;-97.880;2023-06-19T04:31:59;10.68;;;2.95;;
38879;SDS011;25887;30.194;-97.880;2023-06-19T04:34:28;12.48;;;3.20;;
38879;SDS011;25887;30.194;-97.880;2023-06-19T04:36:55;10.05;;;3.38;;
38879;SDS011;25887;30.194;-97.880;2023-06-19T04:39:24;9.93;;;3.40;;
38879;SDS011;25887;30.194;-97.880;2023-06-19T04:41:50;8.98;;;3.13;;
38879;SDS011;25887;30.194;-97.880;2023-06-19T04:44:16;10.45;;;3.20;;
38879;SDS011;25887;30.194;-97.880;2023-06-19T04:46:42;11.88;;;3.80;;
38879;SDS011;25887;30.194;-97.880;2023-06-19T04:49:12;11.40;;;3.47;;
38879;SDS011;25887;30.194;-97.880;2023-06-19T04:51:39;5.75;;;3.08;;
38879;SDS011;25887;30.194;-97.880;2023-06-19T04:54:06;11.07;;;3.35;;
38879;SDS011;25887;30.194;-97.880;2023-06-19T04:56:32;9.02;;;3.15;;
38879;SDS011;25887;30.194;-97.880;2023-06-19T04:58:59;10.00;;;3.53;;
38879;SDS011;25887;30.194;-97.880;2023-06-19T05:01:26;7.40;;;2.97;;
38879;SDS011;25887;30.194;-97.880;2023-06-19T05:03:54;12.05;;;3.03;;
38879;SDS011;25887;30.194;-97.880;2023-06-19T05:06:22;8.15;;;3.15;;
38879;SDS011;25887;30.194;-97.880;2023-06-19T05:08:49;7.00;;;3.05;;
38879;SDS011;25887;30.194;-97.880;2023-06-19T05:11:15;10.10;;;2.95;;
38879;SDS011;25887;30.194;-97.880;2023-06-19T05:13:42;12.15;;;3.13;;
38879;SDS011;25887;30.194;-97.880;2023-06-19T05:16:08;9.77;;;3.72;;
38879;SDS011;25887;30.194;-97.880;2023-06-19T05:18:34;9.63;;;2.75;;
38879;SDS011;25887;30.194;-97.880;2023-06-19T05:21:00;13.18;;;2.88;;
38879;SDS011;25887;30.194;-97.880;2023-06-19T05:23:27;9.30;;;3.13;;
38879;SDS011;25887;30.194;-97.880;2023-06-19T05:25:55;8.45;;;3.50;;
38879;SDS011;25887;30.194;-97.880;2023-06-19T05:28:21;10.15;;;3.55;;
38879;SDS011;25887;30.194;-97.880;2023-06-19T05:30:47;10.63;;;3.30;;
38879;SDS011;25887;30.194;-97.880;2023-06-19T05:33:15;9.82;;;3.08;;
38879;SDS011;25887;30.194;-97.880;2023-06-19T05:35:42;9.68;;;2.60;;
38879;SDS011;25887;30.194;-97.880;2023-06-19T05:38:09;13.38;;;3.45;;
38879;SDS011;25887;30.194;-97.880;2023-06-19T05:40:36;14.55;;;3.25;;
38879;SDS011;25887;30.194;-97.880;2023-06-19T05:43:02;11.57;;;2.88;;
38879;SDS011;25887;30.194;-97.880;2023-06-19T05:45:29;14.02;;;3.17;;
38879;SDS011;25887;30.194;-97.880;2023-06-19T05:47:56;11.40;;;2.95;;
38879;SDS011;25887;30.194;-97.880;2023-06-19T05:50:22;12.07;;;2.90;;
38879;SDS011;25887;30.194;-97.880;2023-06-19T05:52:48;8.02;;;2.90;;
38879;SDS011;25887;30.194;-97.880;2023-06-19T05:55:14;12.82;;;3.05;;
38879;SDS011;25887;30.194;-97.880;2023-06-19T05:57:42;6.53;;;2.58;;
38879;SDS011;25887;30.194;-97.880;2023-06-19T06:00:08;6.07;;;2.67;;
38879;SDS011;25887;30.194;-97.880;2023-06-19T06:02:39;7.60;;;2.90;;
38879;SDS011;25887;30.194;-97.880;2023-06-19T06:05:06;8.50;;;2.60;;
38879;SDS011;25887;30.194;-97.880;2023-06-19T06:07:34;13.43;;;3.17;;
38879;SDS011;25887;30.194;-97.880;2023-06-19T06:10:00;12.38;;;3.47;;
38879;SDS011;25887;30.194;-97.880;2023-06-19T06:12:27;10.40;;;3.00;;
38879;SDS011;25887;30.194;-97.880;2023-06-19T06:14:53;10.27;;;3.10;;
38879;SDS011;25887;30.194;-97.880;2023-06-19T06:17:19;13.00;;;3.33;;
38879;SDS011;25887;30.194;-97.880;2023-06-19T06:19:46;8.30;;;2.45;;
38879;SDS011;25887;30.194;-97.880;2023-06-19T06:22:12;11.02;;;3.10;;
38879;SDS011;25887;30.194;-97.880;2023-06-19T06:24:38;17.05;;;3.33;;
38879;SDS011;25887;30.194;-97.880;2023-06-19T06:27:04;9.43;;;3.13;;
38879;SDS011;25887;30.194;-97.880;2023-06-19T06:29:31;7.88;;;2.83;;
38879;SDS011;25887;30.194;-97.880;2023-06-19T06:32:03;7.70;;;2.70;;
38879;SDS011;25887;30.194;-97.880;2023-06-19T06:34:31;9.02;;;2.78;;
38879;SDS011;25887;30.194;-97.880;2023-06-19T06:37:01;7.88;;;2.85;;
38879;SDS011;25887;30.194;-97.880;2023-06-19T06:39:27;13.35;;;3.50;;
38879;SDS011;25887;30.194;-97.880;2023-06-19T06:41:54;6.22;;;2.63;;
38879;SDS011;25887;30.194;-97.880;2023-06-19T06:44:20;6.07;;;2.67;;
38879;SDS011;25887;30.194;-97.880;2023-06-19T06:46:46;11.63;;;3.00;;
38879;SDS011;25887;30.194;-97.880;2023-06-19T06:49:12;9.98;;;3.00;;
38879;SDS011;25887;30.194;-97.880;2023-06-19T06:51:41;9.32;;;2.97;;
38879;SDS011;25887;30.194;-97.880;2023-06-19T06:54:07;9.38;;;2.75;;
38879;SDS011;25887;30.194;-97.880;2023-06-19T06:56:33;13.02;;;3.15;;
38879;SDS011;25887;30.194;-97.880;2023-06-19T06:58:59;14.38;;;3.33;;
38879;SDS011;25887;30.194;-97.880;2023-06-19T07:01:25;12.10;;;3.05;;
38879;SDS011;25887;30.194;-97.880;2023-06-19T07:03:52;14.73;;;3.25;;
38879;SDS011;25887;30.194;-97.880;2023-06-19T07:06:19;11.10;;;3.35;;
38879;SDS011;25887;30.194;-97.880;2023-06-19T07:08:45;8.73;;;2.60;;
38879;SDS011;25887;30.194;-97.880;2023-06-19T07:11:13;8.25;;;3.15;;
38879;SDS011;25887;30.194;-97.880;2023-06-19T07:13:39;9.63;;;3.05;;
38879;SDS011;25887;30.194;-97.880;2023-06-19T07:16:07;6.93;;;2.58;;
38879;SDS011;25887;30.194;-97.880;2023-06-19T07:18:33;11.40;;;3.85;;
38879;SDS011;25887;30.194;-97.880;2023-06-19T07:21:02;11.50;;;3.22;;
38879;SDS011;25887;30.194;-97.880;2023-06-19T07:23:35;12.10;;;2.97;;
38879;SDS011;25887;30.194;-97.880;2023-06-19T07:26:02;11.15;;;2.83;;
38879;SDS011;25887;30.194;-97.880;2023-06-19T07:28:28;10.48;;;3.05;;
38879;SDS011;25887;30.194;-97.880;2023-06-19T07:30:55;9.63;;;3.13;;
38879;SDS011;25887;30.194;-97.880;2023-06-19T07:33:21;9.30;;;2.85;;
38879;SDS011;25887;30.194;-97.880;2023-06-19T07:35:47;14.27;;;3.70;;
38879;SDS011;25887;30.194;-97.880;2023-06-19T07:38:14;8.07;;;2.65;;
38879;SDS011;25887;30.194;-97.880;2023-06-19T07:40:40;8.10;;;2.88;;
38879;SDS011;25887;30.194;-97.880;2023-06-19T07:43:06;14.38;;;3.13;;
38879;SDS011;25887;30.194;-97.880;2023-06-19T07:45:33;12.45;;;3.35;;
38879;SDS011;25887;30.194;-97.880;2023-06-19T07:47:59;8.70;;;2.67;;
38879;SDS011;25887;30.194;-97.880;2023-06-19T07:50:25;10.00;;;2.45;;
38879;SDS011;25887;30.194;-97.880;2023-06-19T07:52:52;16.08;;;2.42;;
38879;SDS011;25887;30.194;-97.880;2023-06-19T07:55:18;14.93;;;2.83;;
38879;SDS011;25887;30.194;-97.880;2023-06-19T07:57:46;13.98;;;2.90;;
38879;SDS011;25887;30.194;-97.880;2023-06-19T08:00:12;15.40;;;3.08;;
38879;SDS011;25887;30.194;-97.880;2023-06-19T08:02:40;14.25;;;3.28;;
38879;SDS011;25887;30.194;-97.880;2023-06-19T08:05:06;15.07;;;3.45;;
38879;SDS011;25887;30.194;-97.880;2023-06-19T08:07:34;7.40;;;2.75;;
38879;SDS011;25887;30.194;-97.880;2023-06-19T08:10:01;9.98;;;3.22;;
38879;SDS011;25887;30.194;-97.880;2023-06-19T08:12:29;8.70;;;2.63;;
38879;SDS011;25887;30.194;-97.880;2023-06-19T08:14:56;8.30;;;2.35;;
38879;SDS011;25887;30.194;-97.880;2023-06-19T08:17:22;11.80;;;2.97;;
38879;SDS011;25887;30.194;-97.880;2023-06-19T08:19:48;11.30;;;2.78;;
38879;SDS011;25887;30.194;-97.880;2023-06-19T08:22:15;13.45;;;3.13;;
38879;SDS011;25887;30.194;-97.880;2023-06-19T08:24:41;8.68;;;3.50;;
38879;SDS011;25887;30.194;-97.880;2023-06-19T08:27:07;13.98;;;2.97;;
38879;SDS011;25887;30.194;-97.880;2023-06-19T08:29:33;9.88;;;2.95;;
38879;SDS011;25887;30.194;-97.880;2023-06-19T08:32:02;9.27;;;2.63;;
38879;SDS011;25887;30.194;-97.880;2023-06-19T08:34:28;11.07;;;2.47;;
38879;SDS011;25887;30.194;-97.880;2023-06-19T08:36:54;9.50;;;3.00;;
38879;SDS011;25887;30.194;-97.880;2023-06-19T08:39:20;11.50;;;2.75;;
38879;SDS011;25887;30.194;-97.880;2023-06-19T08:41:47;10.23;;;3.03;;
38879;SDS011;25887;30.194;-97.880;2023-06-19T08:44:13;13.77;;;3.53;;
38879;SDS011;25887;30.194;-97.880;2023-06-19T08:46:39;11.73;;;3.20;;
38879;SDS011;25887;30.194;-97.880;2023-06-19T08:49:07;10.65;;;2.63;;
38879;SDS011;25887;30.194;-97.880;2023-06-19T08:51:36;8.90;;;2.80;;
38879;SDS011;25887;30.194;-97.880;2023-06-19T08:54:03;11.95;;;3.28;;
38879;SDS011;25887;30.194;-97.880;2023-06-19T08:56:33;10.00;;;3.50;;
38879;SDS011;25887;30.194;-97.880;2023-06-19T09:01:36;15.55;;;3.72;;
38879;SDS011;25887;30.194;-97.880;2023-06-19T09:04:12;11.07;;;3.65;;
38879;SDS011;25887;30.194;-97.880;2023-06-19T09:06:52;10.77;;;3.20;;
38879;SDS011;25887;30.194;-97.880;2023-06-19T09:09:20;14.45;;;3.33;;
38879;SDS011;25887;30.194;-97.880;2023-06-19T09:12:00;12.07;;;3.58;;
38879;SDS011;25887;30.194;-97.880;2023-06-19T09:14:34;15.35;;;3.42;;
38879;SDS011;25887;30.194;-97.880;2023-06-19T09:19:53;8.40;;;3.17;;
38879;SDS011;25887;30.194;-97.880;2023-06-19T09:22:24;11.85;;;3.20;;
38879;SDS011;25887;30.194;-97.880;2023-06-19T09:24:50;10.98;;;3.88;;
38879;SDS011;25887;30.194;-97.880;2023-06-19T09:27:17;14.05;;;2.88;;
38879;SDS011;25887;30.194;-97.880;2023-06-19T09:29:46;9.13;;;3.15;;
38879;SDS011;25887;30.194;-97.880;2023-06-19T09:32:20;12.07;;;3.67;;
38879;SDS011;25887;30.194;-97.880;2023-06-19T09:34:48;16.30;;;3.45;;
38879;SDS011;25887;30.194;-97.880;2023-06-19T09:37:18;6.85;;;3.05;;
38879;SDS011;25887;30.194;-97.880;2023-06-19T09:39:54;12.32;;;3.83;;
38879;SDS011;25887;30.194;-97.880;2023-06-19T09:48:43;16.65;;;3.85;;
38879;SDS011;25887;30.194;-97.880;2023-06-19T09:51:17;9.35;;;3.00;;
38879;SDS011;25887;30.194;-97.880;2023-06-19T09:53:45;14.18;;;3.47;;
38879;SDS011;25887;30.194;-97.880;2023-06-19T09:56:16;11.45;;;3.17;;
38879;SDS011;25887;30.194;-97.880;2023-06-19T09:58:49;11.18;;;3.55;;
38879;SDS011;25887;30.194;-97.880;2023-06-19T10:01:18;8.85;;;3.10;;
38879;SDS011;25887;30.194;-97.880;2023-06-19T10:03:45;19.65;;;3.58;;
38879;SDS011;25887;30.194;-97.880;2023-06-19T10:06:15;11.68;;;3.67;;
38879;SDS011;25887;30.194;-97.880;2023-06-19T10:08:43;13.50;;;3.33;;
38879;SDS011;25887;30.194;-97.880;2023-06-19T10:11:10;12.10;;;3.70;;
38879;SDS011;25887;30.194;-97.880;2023-06-19T10:13:37;14.60;;;3.75;;
38879;SDS011;25887;30.194;-97.880;2023-06-19T10:16:12;15.65;;;3.50;;
38879;SDS011;25887;30.194;-97.880;2023-06-19T10:18:48;15.45;;;3.60;;
38879;SDS011;25887;30.194;-97.880;2023-06-19T10:21:16;11.38;;;3.40;;
38879;SDS011;25887;30.194;-97.880;2023-06-19T10:23:43;18.05;;;3.90;;
38879;SDS011;25887;30.194;-97.880;2023-06-19T10:26:32;10.70;;;3.15;;
38879;SDS011;25887;30.194;-97.880;2023-06-19T10:28:59;14.25;;;3.45;;
38879;SDS011;25887;30.194;-97.880;2023-06-19T10:31:26;11.38;;;3.28;;
38879;SDS011;25887;30.194;-97.880;2023-06-19T10:33:55;14.00;;;3.60;;
38879;SDS011;25887;30.194;-97.880;2023-06-19T10:36:22;14.73;;;3.85;;
38879;SDS011;25887;30.194;-97.880;2023-06-19T10:38:51;8.63;;;3.80;;
38879;SDS011;25887;30.194;-97.880;2023-06-19T10:41:18;13.10;;;3.17;;
38879;SDS011;25887;30.194;-97.880;2023-06-19T10:44:04;14.10;;;4.55;;
38879;SDS011;25887;30.194;-97.880;2023-06-19T10:46:37;10.88;;;4.10;;
38879;SDS011;25887;30.194;-97.880;2023-06-19T10:49:06;8.80;;;3.90;;
38879;SDS011;25887;30.194;-97.880;2023-06-19T10:51:40;14.60;;;3.97;;
38879;SDS011;25887;30.194;-97.880;2023-06-19T10:54:10;9.53;;;3.53;;
38879;SDS011;25887;30.194;-97.880;2023-06-19T10:56:36;12.35;;;3.85;;
38879;SDS011;25887;30.194;-97.880;2023-06-19T10:59:03;11.90;;;3.78;;
38879;SDS011;25887;30.194;-97.880;2023-06-19T11:01:39;11.93;;;3.65;;
38879;SDS011;25887;30.194;-97.880;2023-06-19T11:04:08;10.57;;;3.80;;
38879;SDS011;25887;30.194;-97.880;2023-06-19T11:06:36;12.55;;;3.42;;
38879;SDS011;25887;30.194;-97.880;2023-06-19T11:09:06;9.05;;;3.65;;
38879;SDS011;25887;30.194;-97.880;2023-06-19T11:11:37;8.77;;;3.72;;
38879;SDS011;25887;30.194;-97.880;2023-06-19T11:14:08;12.13;;;3.80;;
38879;SDS011;25887;30.194;-97.880;2023-06-19T11:16:41;18.08;;;4.30;;
38879;SDS011;25887;30.194;-97.880;2023-06-19T11:19:17;10.63;;;3.90;;
38879;SDS011;25887;30.194;-97.880;2023-06-19T11:21:45;10.07;;;3.53;;
38879;SDS011;25887;30.194;-97.880;2023-06-19T11:24:14;12.85;;;4.07;;
38879;SDS011;25887;30.194;-97.880;2023-06-19T11:26:41;13.65;;;4.30;;
38879;SDS011;25887;30.194;-97.880;2023-06-19T11:31:41;11.15;;;3.60;;
38879;SDS011;25887;30.194;-97.880;2023-06-19T11:34:07;10.90;;;3.63;;
38879;SDS011;25887;30.194;-97.880;2023-06-19T11:36:36;8.65;;;4.18;;
38879;SDS011;25887;30.194;-97.880;2023-06-19T11:39:03;12.65;;;4.10;;
38879;SDS011;25887;30.194;-97.880;2023-06-19T11:41:34;11.90;;;3.55;;
38879;SDS011;25887;30.194;-97.880;2023-06-19T11:44:04;9.43;;;4.05;;
38879;SDS011;25887;30.194;-97.880;2023-06-19T11:46:32;14.70;;;3.95;;
38879;SDS011;25887;30.194;-97.880;2023-06-19T11:49:09;15.50;;;4.32;;
38879;SDS011;25887;30.194;-97.880;2023-06-19T11:51:44;15.40;;;3.97;;
38879;SDS011;25887;30.194;-97.880;2023-06-19T11:54:11;16.25;;;3.70;;
38879;SDS011;25887;30.194;-97.880;2023-06-19T11:56:40;9.77;;;3.67;;
38879;SDS011;25887;30.194;-97.880;2023-06-19T11:59:06;13.50;;;4.75;;
38879;SDS011;25887;30.194;-97.880;2023-06-19T12:01:33;8.57;;;3.67;;
38879;SDS011;25887;30.194;-97.880;2023-06-19T12:04:03;8.95;;;3.63;;
38879;SDS011;25887;30.194;-97.880;2023-06-19T12:06:30;8.80;;;3.70;;
38879;SDS011;25887;30.194;-97.880;2023-06-19T12:08:57;7.75;;;3.50;;
38879;SDS011;25887;30.194;-97.880;2023-06-19T12:11:24;12.43;;;4.05;;
38879;SDS011;25887;30.194;-97.880;2023-06-19T12:13:50;11.70;;;4.07;;
38879;SDS011;25887;30.194;-97.880;2023-06-19T12:16:18;15.68;;;4.05;;
38879;SDS011;25887;30.194;-97.880;2023-06-19T12:18:44;12.43;;;3.90;;
38879;SDS011;25887;30.194;-97.880;2023-06-19T12:21:11;13.02;;;3.63;;
38879;SDS011;25887;30.194;-97.880;2023-06-19T12:23:37;12.38;;;3.50;;
38879;SDS011;25887;30.194;-97.880;2023-06-19T12:26:03;12.05;;;3.50;;
38879;SDS011;25887;30.194;-97.880;2023-06-19T12:28:31;10.07;;;3.67;;
38879;SDS011;25887;30.194;-97.880;2023-06-19T12:30:57;13.50;;;3.63;;
38879;SDS011;25887;30.194;-97.880;2023-06-19T12:33:23;16.67;;;3.75;;
38879;SDS011;25887;30.194;-97.880;2023-06-19T12:35:50;11.05;;;3.05;;
38879;SDS011;25887;30.194;-97.880;2023-06-19T12:38:16;14.63;;;3.45;;
38879;SDS011;25887;30.194;-97.880;2023-06-19T12:40:44;9.32;;;4.18;;
38879;SDS011;25887;30.194;-97.880;2023-06-19T12:43:13;10.77;;;4.05;;
38879;SDS011;25887;30.194;-97.880;2023-06-19T12:45:39;12.05;;;4.28;;
38879;SDS011;25887;30.194;-97.880;2023-06-19T12:48:06;12.88;;;3.97;;
38879;SDS011;25887;30.194;-97.880;2023-06-19T12:50:33;12.38;;;3.42;;
38879;SDS011;25887;30.194;-97.880;2023-06-19T12:52:59;11.00;;;4.43;;
38879;SDS011;25887;30.194;-97.880;2023-06-19T12:55:25;12.05;;;3.25;;
38879;SDS011;25887;30.194;-97.880;2023-06-19T12:57:51;9.10;;;3.17;;
38879;SDS011;25887;30.194;-97.880;2023-06-19T13:00:17;10.38;;;3.70;;
38879;SDS011;25887;30.194;-97.880;2023-06-19T13:02:44;10.15;;;3.42;;
38879;SDS011;25887;30.194;-97.880;2023-06-19T13:05:12;9.73;;;4.28;;
38879;SDS011;25887;30.194;-97.880;2023-06-19T13:07:38;6.78;;;3.30;;
38879;SDS011;25887;30.194;-97.880;2023-06-19T13:10:06;7.95;;;2.80;;
38879;SDS011;25887;30.194;-97.880;2023-06-19T13:12:33;13.20;;;3.35;;
38879;SDS011;25887;30.194;-97.880;2023-06-19T13:14:59;12.32;;;3.42;;
38879;SDS011;25887;30.194;-97.880;2023-06-19T13:17:27;8.77;;;3.28;;
38879;SDS011;25887;30.194;-97.880;2023-06-19T13:19:53;11.50;;;3.20;;
38879;SDS011;25887;30.194;-97.880;2023-06-19T13:22:19;10.90;;;3.03;;
38879;SDS011;25887;30.194;-97.880;2023-06-19T13:24:45;11.90;;;3.42;;
38879;SDS011;25887;30.194;-97.880;2023-06-19T13:27:11;9.10;;;3.40;;
38879;SDS011;25887;30.194;-97.880;2023-06-19T13:29:38;14.60;;;3.90;;
38879;SDS011;25887;30.194;-97.880;2023-06-19T13:32:05;14.38;;;4.07;;
38879;SDS011;25887;30.194;-97.880;2023-06-19T13:34:32;10.10;;;3.45;;
38879;SDS011;25887;30.194;-97.880;2023-06-19T13:36:58;13.18;;;3.75;;
38879;SDS011;25887;30.194;-97.880;2023-06-19T13:39:24;13.57;;;3.42;;
38879;SDS011;25887;30.194;-97.880;2023-06-19T13:41:51;8.15;;;3.28;;
38879;SDS011;25887;30.194;-97.880;2023-06-19T13:44:17;20.35;;;4.53;;
38879;SDS011;25887;30.194;-97.880;2023-06-19T13:46:44;14.07;;;4.03;;
38879;SDS011;25887;30.194;-97.880;2023-06-19T13:49:10;13.25;;;3.53;;
38879;SDS011;25887;30.194;-97.880;2023-06-19T13:51:38;14.85;;;4.50;;
38879;SDS011;25887;30.194;-97.880;2023-06-19T13:54:05;12.43;;;3.42;;
38879;SDS011;25887;30.194;-97.880;2023-06-19T13:56:31;16.23;;;4.07;;
38879;SDS011;25887;30.194;-97.880;2023-06-19T13:59:00;10.82;;;4.53;;
38879;SDS011;25887;30.194;-97.880;2023-06-19T14:01:26;9.55;;;3.33;;
38879;SDS011;25887;30.194;-97.880;2023-06-19T14:03:52;14.73;;;4.05;;
38879;SDS011;25887;30.194;-97.880;2023-06-19T14:06:18;14.30;;;3.42;;
38879;SDS011;25887;30.194;-97.880;2023-06-19T14:08:44;6.78;;;3.33;;
38879;SDS011;25887;30.194;-97.880;2023-06-19T14:11:11;4.85;;;3.13;;
38879;SDS011;25887;30.194;-97.880;2023-06-19T14:13:37;10.65;;;3.83;;
38879;SDS011;25887;30.194;-97.880;2023-06-19T14:16:03;9.70;;;3.50;;
38879;SDS011;25887;30.194;-97.880;2023-06-19T14:18:29;11.43;;;4.00;;
38879;SDS011;25887;30.194;-97.880;2023-06-19T14:20:59;12.15;;;4.40;;
38879;SDS011;25887;30.194;-97.880;2023-06-19T14:23:25;14.60;;;3.47;;
38879;SDS011;25887;30.194;-97.880;2023-06-19T14:25:51;9.65;;;3.33;;
38879;SDS011;25887;30.194;-97.880;2023-06-19T14:28:17;12.00;;;4.10;;
38879;SDS011;25887;30.194;-97.880;2023-06-19T14:30:43;9.82;;;4.05;;